Share

Helton, KY

12:30 AM EDT on April 25, 2014 (GMT -0400)
White Rocks View (KVAROSEH1) Elev 1470 ft | 36.65 °N, 83.40 °W | Change Station

Current weather conditions updated 18 seconds ago

Clear
Clear
49.5 °F
Feels Like 50 °F
N
3.0
Wind Variable Wind from NE
Gusts 3.0 mph
Sunrise 6:46 AM
Sunset 8:16 PM
Moon Waning Crescent

Today is forecast to be Much Cooler than yesterday. Thunderstorms.

Pressure 29.81 in
Visibility 10.0 miles
Clouds Clear
Windchill 50 °F
Dew Point 45 °F
Humidity 83%
Rainfall 0.00 in
Snow Depth Not available.
UV 0 out of 16
Pollen 9.90 out of 12
Air Quality Not available.
Flu Activity Sporadic
METAR KLOZ 250353Z AUTO 00000KT 10SM CLR 18/02 A2983 RMK AO2 SLP092 T01780017

More Conditions Fewer Conditions

Pressure 29.81 in
Visibility 10.0 miles
Clouds Clear
Windchill 50 °F
Dew Point 45 °F
Humidity 83%
Rainfall 0.00 in
Snow Depth Not available.
UV 0 out of 16
Pollen 9.90 out of 12
Air Quality Not available.
Flu Activity Sporadic
METAR KLOZ 250353Z AUTO 00000KT 10SM CLR 18/02 A2983 RMK AO2 SLP092 T01780017

More Conditions Fewer Conditions

10-Day Weather Forecast

Almanac

Astronomy

Apr. 25, 2014 Rise Set
Actual Time 6:46 AM EDT 8:16 PM EDT
Civil Twilight 6:18 AM EDT 8:44 PM EDT
Nautical Twilight 5:46 AM EDT 9:17 PM EDT
Astronomical Twilight 5:11 AM EDT 9:51 PM EDT
Moon 4:27 AM EDT 4:43 PM EDT
Length of Visible Light 14h 25m
Length of Day
13h 30m
Tomorrow will be 2m 6s longer.
Waning Crescent, 19% of the Moon is Illuminated
Today
Waning Crescent
Apr 29
New
May 6
First Quarter
May 14
Full
May 21
Last Quarter

Yesterday's Extremes

State Highs State Lows

Community

  • Deer in evening light
    Deer in evening light
  • Critter
    Critter
  • Jone Runs Falls
    Jone Runs Falls
  • Easter in Shenandoah National Park
    Easter in Shenandoah National Park
  • Sunset at Apalachicola Bay, Florida
    Sunset at Apalachicola Bay, Florida

WunderPhotos

Upload Photos

1,704,850 photos uploaded!

WunderBlogs® & News

Nearby

Snow Depth

Station Depth Elevation
No new snow has been reported.

Coastal Water Temperatures

Place Temperature
No Stations Reporting

Earthquake Activity

City Distance Mag. Time & Date
No recent earthquake activity has been reported nearby.
Minimum magnitude displayed is 2.5.

Nearby Weather Stations

Station Location Temp. Windchill Dew Point Humidity Wind Precip. Elev Updated Type
White Rocks View, Rose Hill, VA 49.5 °F 50 °F 45 °F 83% NE  at  3.0 mph 0.00 in / hr 1470 ft 12:30 AM EDT Normal
Colmar, Middlesboro, KY 50.0 °F - 45 °F 82% SSW  at  0.0 mph - / hr 1135 ft 12:20 AM EDT Normal
RAWS PEABODY KY, Big Creek, KY 66 °F - 34 °F 31% ESE  at  3 mph 0.00 in / hr 1464 ft 12:01 AM EDT MADIS

Show More Stations Show Fewer Stations

What do you think?

We're not finished. Please let us know what you like, what you don't like, and what you are still missing.